sensor_id;sensor_type;location;lat;lon;timestamp;pressure;altitude;pressure_sealevel;temperature;humidity
33496;BME280;19836;55.812;37.560;2023-03-01T00:33:37;98796.56;;;-3.62;55.68
33496;BME280;19836;55.812;37.560;2023-03-01T00:36:52;98802.66;;;-3.66;54.96
33496;BME280;19836;55.812;37.560;2023-03-01T00:39:18;98803.47;;;-3.70;55.17
33496;BME280;19836;55.812;37.560;2023-03-01T00:41:44;98798.28;;;-3.68;55.51
33496;BME280;19836;55.812;37.560;2023-03-01T00:44:11;98809.59;;;-3.71;55.37
33496;BME280;19836;55.812;37.560;2023-03-01T00:46:37;98799.03;;;-3.77;55.14
33496;BME280;19836;55.812;37.560;2023-03-01T00:49:03;98791.94;;;-3.87;55.61
33496;BME280;19836;55.812;37.560;2023-03-01T00:51:30;98798.06;;;-3.87;56.15
33496;BME280;19836;55.812;37.560;2023-03-01T00:53:59;98788.50;;;-3.86;55.40
33496;BME280;19836;55.812;37.560;2023-03-01T00:56:26;98796.31;;;-3.88;55.87
33496;BME280;19836;55.812;37.560;2023-03-01T00:58:52;98798.09;;;-3.85;55.77
33496;BME280;19836;55.812;37.560;2023-03-01T01:01:25;98800.72;;;-3.82;55.47
33496;BME280;19836;55.812;37.560;2023-03-01T01:03:56;98792.88;;;-3.82;56.12
33496;BME280;19836;55.812;37.560;2023-03-01T01:06:31;98781.59;;;-3.78;56.06
33496;BME280;19836;55.812;37.560;2023-03-01T01:08:57;98782.44;;;-3.79;55.39
33496;BME280;19836;55.812;37.560;2023-03-01T01:11:25;98790.25;;;-3.85;55.87
33496;BME280;19836;55.812;37.560;2023-03-01T01:13:52;98784.97;;;-3.87;55.46
33496;BME280;19836;55.812;37.560;2023-03-01T01:16:20;98786.75;;;-3.84;55.39
33496;BME280;19836;55.812;37.560;2023-03-01T01:18:47;98791.09;;;-3.86;55.92
33496;BME280;19836;55.812;37.560;2023-03-01T01:21:15;98785.84;;;-3.88;55.95
33496;BME280;19836;55.812;37.560;2023-03-01T01:23:42;98796.34;;;-3.86;55.52
33496;BME280;19836;55.812;37.560;2023-03-01T01:26:15;98790.25;;;-3.85;55.75
33496;BME280;19836;55.812;37.560;2023-03-01T01:28:42;98800.66;;;-3.88;55.69
33496;BME280;19836;55.812;37.560;2023-03-01T01:31:08;98798.91;;;-3.89;55.48
33496;BME280;19836;55.812;37.560;2023-03-01T01:33:34;98795.34;;;-3.94;55.56
33496;BME280;19836;55.812;37.560;2023-03-01T01:36:00;98798.84;;;-3.95;55.68
33496;BME280;19836;55.812;37.560;2023-03-01T01:38:26;98796.19;;;-3.97;55.66
33496;BME280;19836;55.812;37.560;2023-03-01T01:40:52;98804.09;;;-3.92;56.19
33496;BME280;19836;55.812;37.560;2023-03-01T01:43:28;98802.41;;;-3.87;55.86
33496;BME280;19836;55.812;37.560;2023-03-01T01:46:23;98806.72;;;-3.91;55.81
33496;BME280;19836;55.812;37.560;2023-03-01T01:49:06;98807.69;;;-3.84;56.12
33496;BME280;19836;55.812;37.560;2023-03-01T01:51:40;98804.25;;;-3.80;55.98
33496;BME280;19836;55.812;37.560;2023-03-01T01:54:21;98800.88;;;-3.70;56.06
33496;BME280;19836;55.812;37.560;2023-03-01T01:56:53;98795.66;;;-3.67;55.87
33496;BME280;19836;55.812;37.560;2023-03-01T01:59:21;98800.88;;;-3.67;55.70
33496;BME280;19836;55.812;37.560;2023-03-01T02:01:51;98793.94;;;-3.65;55.73
33496;BME280;19836;55.812;37.560;2023-03-01T02:04:18;98803.50;;;-3.66;55.89
33496;BME280;19836;55.812;37.560;2023-03-01T02:06:49;98791.19;;;-3.76;55.84
33496;BME280;19836;55.812;37.560;2023-03-01T02:09:20;98803.44;;;-3.76;56.00
33496;BME280;19836;55.812;37.560;2023-03-01T02:11:49;98795.50;;;-3.83;55.98
33496;BME280;19836;55.812;37.560;2023-03-01T02:14:16;98798.00;;;-3.90;56.25
33496;BME280;19836;55.812;37.560;2023-03-01T02:16:43;98807.56;;;-3.96;56.32
33496;BME280;19836;55.812;37.560;2023-03-01T02:19:20;98803.22;;;-3.92;56.49
33496;BME280;19836;55.812;37.560;2023-03-01T02:24:39;98811.88;;;-3.98;56.40
33496;BME280;19836;55.812;37.560;2023-03-01T02:27:09;98807.41;;;-4.08;56.30
33496;BME280;19836;55.812;37.560;2023-03-01T02:29:35;98817.91;;;-4.05;56.66
33496;BME280;19836;55.812;37.560;2023-03-01T02:32:03;98810.03;;;-4.07;56.99
33496;BME280;19836;55.812;37.560;2023-03-01T02:34:32;98810.06;;;-4.05;56.56
33496;BME280;19836;55.812;37.560;2023-03-01T02:37:07;98805.59;;;-4.12;56.83
33496;BME280;19836;55.812;37.560;2023-03-01T02:39:48;98822.19;;;-4.12;57.17
33496;BME280;19836;55.812;37.560;2023-03-01T02:42:20;98807.28;;;-4.17;56.95
33496;BME280;19836;55.812;37.560;2023-03-01T02:44:52;98816.88;;;-4.18;57.11
33496;BME280;19836;55.812;37.560;2023-03-01T02:47:19;98820.34;;;-4.20;57.24
33496;BME280;19836;55.812;37.560;2023-03-01T02:49:46;98816.78;;;-4.22;57.83
33496;BME280;19836;55.812;37.560;2023-03-01T02:55:30;98820.16;;;-4.32;57.51
33496;BME280;19836;55.812;37.560;2023-03-01T02:57:57;98815.78;;;-4.33;57.71
33496;BME280;19836;55.812;37.560;2023-03-01T03:00:28;98815.84;;;-4.27;57.95
33496;BME280;19836;55.812;37.560;2023-03-01T03:02:55;98814.09;;;-4.31;57.69
33496;BME280;19836;55.812;37.560;2023-03-01T03:05:26;98825.44;;;-4.29;58.10
33496;BME280;19836;55.812;37.560;2023-03-01T03:07:56;98836.69;;;-4.33;57.67
33496;BME280;19836;55.812;37.560;2023-03-01T03:10:27;98827.91;;;-4.41;57.92
33496;BME280;19836;55.812;37.560;2023-03-01T03:13:02;98832.25;;;-4.40;58.23
33496;BME280;19836;55.812;37.560;2023-03-01T03:15:28;98831.41;;;-4.39;58.28
33496;BME280;19836;55.812;37.560;2023-03-01T03:17:56;98833.13;;;-4.41;57.72
33496;BME280;19836;55.812;37.560;2023-03-01T03:20:25;98833.97;;;-4.43;58.10
33496;BME280;19836;55.812;37.560;2023-03-01T03:22:53;98840.03;;;-4.43;58.38
33496;BME280;19836;55.812;37.560;2023-03-01T03:25:21;98840.88;;;-4.46;58.86
33496;BME280;19836;55.812;37.560;2023-03-01T03:27:49;98832.19;;;-4.46;58.16
33496;BME280;19836;55.812;37.560;2023-03-01T03:30:26;98838.22;;;-4.50;58.17
33496;BME280;19836;55.812;37.560;2023-03-01T03:32:53;98842.56;;;-4.51;58.81
33496;BME280;19836;55.812;37.560;2023-03-01T03:35:32;98838.19;;;-4.52;59.06
33496;BME280;19836;55.812;37.560;2023-03-01T03:38:03;98833.81;;;-4.53;58.38
33496;BME280;19836;55.812;37.560;2023-03-01T03:40:36;98849.50;;;-4.53;58.89
33496;BME280;19836;55.812;37.560;2023-03-01T03:43:03;98848.66;;;-4.50;58.92
33496;BME280;19836;55.812;37.560;2023-03-01T03:45:29;98842.59;;;-4.49;58.50
33496;BME280;19836;55.812;37.560;2023-03-01T03:47:55;98832.03;;;-4.57;58.79
33496;BME280;19836;55.812;37.560;2023-03-01T03:50:21;98841.59;;;-4.56;58.87
33496;BME280;19836;55.812;37.560;2023-03-01T03:52:47;98844.25;;;-4.54;58.89
33496;BME280;19836;55.812;37.560;2023-03-01T03:55:12;98846.84;;;-4.56;59.14
33496;BME280;19836;55.812;37.560;2023-03-01T03:57:40;98838.09;;;-4.59;58.74
33496;BME280;19836;55.812;37.560;2023-03-01T04:00:11;98834.56;;;-4.63;59.00
33496;BME280;19836;55.812;37.560;2023-03-01T04:02:43;98833.59;;;-4.68;59.07
33496;BME280;19836;55.812;37.560;2023-03-01T04:05:11;98850.13;;;-4.67;59.10
33496;BME280;19836;55.812;37.560;2023-03-01T04:07:38;98847.56;;;-4.66;58.96
33496;BME280;19836;55.812;37.560;2023-03-01T04:10:05;98856.28;;;-4.65;59.77
33496;BME280;19836;55.812;37.560;2023-03-01T04:12:33;98852.84;;;-4.63;59.43
33496;BME280;19836;55.812;37.560;2023-03-01T04:15:00;98858.94;;;-4.63;59.65
33496;BME280;19836;55.812;37.560;2023-03-01T04:17:27;98860.72;;;-4.61;59.30
33496;BME280;19836;55.812;37.560;2023-03-01T04:19:53;98854.66;;;-4.58;59.44
33496;BME280;19836;55.812;37.560;2023-03-01T04:22:19;98854.66;;;-4.58;59.48
33496;BME280;19836;55.812;37.560;2023-03-01T04:24:45;98856.31;;;-4.62;59.56
33496;BME280;19836;55.812;37.560;2023-03-01T04:27:11;98860.69;;;-4.60;59.51
33496;BME280;19836;55.812;37.560;2023-03-01T04:29:37;98853.81;;;-4.56;60.11
33496;BME280;19836;55.812;37.560;2023-03-01T04:32:03;98857.25;;;-4.57;59.70
33496;BME280;19836;55.812;37.560;2023-03-01T04:34:30;98855.50;;;-4.58;59.62
33496;BME280;19836;55.812;37.560;2023-03-01T04:36:56;98856.44;;;-4.56;60.10
33496;BME280;19836;55.812;37.560;2023-03-01T04:39:24;98864.28;;;-4.53;60.32
33496;BME280;19836;55.812;37.560;2023-03-01T04:41:51;98857.38;;;-4.51;60.01
33496;BME280;19836;55.812;37.560;2023-03-01T04:44:18;98869.56;;;-4.50;60.01
33496;BME280;19836;55.812;37.560;2023-03-01T04:46:44;98860.06;;;-4.45;60.08
33496;BME280;19836;55.812;37.560;2023-03-01T04:49:11;98864.38;;;-4.47;60.21
33496;BME280;19836;55.812;37.560;2023-03-01T04:51:37;98869.59;;;-4.47;60.18
33496;BME280;19836;55.812;37.560;2023-03-01T04:54:03;98863.53;;;-4.45;59.78
33496;BME280;19836;55.812;37.560;2023-03-01T04:56:31;98867.94;;;-4.42;60.17
33496;BME280;19836;55.812;37.560;2023-03-01T04:58:57;98867.94;;;-4.42;60.55
33496;BME280;19836;55.812;37.560;2023-03-01T05:01:22;98869.75;;;-4.38;59.99
33496;BME280;19836;55.812;37.560;2023-03-01T05:03:50;98877.66;;;-4.33;60.47
33496;BME280;19836;55.812;37.560;2023-03-01T05:06:18;98866.38;;;-4.31;59.88
33496;BME280;19836;55.812;37.560;2023-03-01T05:08:51;98878.63;;;-4.26;59.73
33496;BME280;19836;55.812;37.560;2023-03-01T05:11:17;98879.59;;;-4.19;59.92
33496;BME280;19836;55.812;37.560;2023-03-01T05:45:32;98896.44;;;-3.26;58.58
33496;BME280;19836;55.812;37.560;2023-03-01T05:47:58;98906.06;;;-3.22;58.16
33496;BME280;19836;55.812;37.560;2023-03-01T05:50:54;98899.16;;;-3.16;57.81
33496;BME280;19836;55.812;37.560;2023-03-01T05:53:20;98905.31;;;-3.11;57.94
33496;BME280;19836;55.812;37.560;2023-03-01T05:55:47;98910.63;;;-3.03;58.43
33496;BME280;19836;55.812;37.560;2023-03-01T05:58:16;98900.22;;;-2.96;58.38
33496;BME280;19836;55.812;37.560;2023-03-01T06:00:46;98905.50;;;-2.90;57.70
33496;BME280;19836;55.812;37.560;2023-03-01T06:03:24;98911.59;;;-2.92;57.96
33496;BME280;19836;55.812;37.560;2023-03-01T06:05:55;98913.38;;;-2.91;57.94
33496;BME280;19836;55.812;37.560;2023-03-01T06:08:21;98917.78;;;-2.88;57.57
33496;BME280;19836;55.812;37.560;2023-03-01T06:10:47;98911.69;;;-2.86;57.62
33496;BME280;19836;55.812;37.560;2023-03-01T06:13:13;98916.91;;;-2.85;57.56
33496;BME280;19836;55.812;37.560;2023-03-01T06:15:39;98919.53;;;-2.86;57.77
33496;BME280;19836;55.812;37.560;2023-03-01T06:18:05;98919.63;;;-2.78;57.67
33496;BME280;19836;55.812;37.560;2023-03-01T06:20:36;98911.81;;;-2.68;57.81
33496;BME280;19836;55.812;37.560;2023-03-01T06:23:02;98919.78;;;-2.55;57.68
33496;BME280;19836;55.812;37.560;2023-03-01T06:25:32;98924.25;;;-2.43;57.23
33496;BME280;19836;55.812;37.560;2023-03-01T06:27:58;98926.13;;;-2.30;57.29
33496;BME280;19836;55.812;37.560;2023-03-01T06:30:25;98925.25;;;-2.25;57.09
33496;BME280;19836;55.812;37.560;2023-03-01T06:32:51;98924.47;;;-2.13;56.77
33496;BME280;19836;55.812;37.560;2023-03-01T06:35:18;98926.25;;;-2.09;56.73
33496;BME280;19836;55.812;37.560;2023-03-01T06:37:46;98924.50;;;-2.07;56.62
33496;BME280;19836;55.812;37.560;2023-03-01T06:40:13;98928.94;;;-2.02;56.49
33496;BME280;19836;55.812;37.560;2023-03-01T06:42:42;98931.56;;;-1.97;56.30
33496;BME280;19836;55.812;37.560;2023-03-01T06:45:10;98933.31;;;-1.96;56.34
33496;BME280;19836;55.812;37.560;2023-03-01T06:47:37;98929.84;;;-1.95;56.06
33496;BME280;19836;55.812;37.560;2023-03-01T06:50:03;98947.31;;;-1.96;56.45
33496;BME280;19836;55.812;37.560;2023-03-01T06:52:29;98929.81;;;-1.98;56.12
33496;BME280;19836;55.812;37.560;2023-03-01T06:54:55;98935.13;;;-1.89;56.36
33496;BME280;19836;55.812;37.560;2023-03-01T06:57:21;98930.81;;;-1.77;55.97
33496;BME280;19836;55.812;37.560;2023-03-01T06:59:47;98930.84;;;-1.75;55.69
33496;BME280;19836;55.812;37.560;2023-03-01T07:02:14;98934.28;;;-1.82;55.87
33496;BME280;19836;55.812;37.560;2023-03-01T07:04:41;98932.53;;;-1.83;55.87
33496;BME280;19836;55.812;37.560;2023-03-01T07:07:17;98942.16;;;-1.85;55.73
33496;BME280;19836;55.812;37.560;2023-03-01T07:09:47;98930.72;;;-1.92;55.79
33496;BME280;19836;55.812;37.560;2023-03-01T07:12:14;98941.22;;;-1.93;55.71
33496;BME280;19836;55.812;37.560;2023-03-01T07:14:41;98949.97;;;-1.92;55.78
33496;BME280;19836;55.812;37.560;2023-03-01T07:17:07;98956.06;;;-1.98;55.91
33496;BME280;19836;55.812;37.560;2023-03-01T07:19:33;98961.28;;;-2.04;55.81
33496;BME280;19836;55.812;37.560;2023-03-01T07:21:59;98958.66;;;-2.04;56.08
33496;BME280;19836;55.812;37.560;2023-03-01T07:24:25;98963.03;;;-2.03;56.21
33496;BME280;19836;55.812;37.560;2023-03-01T07:26:51;98966.53;;;-2.01;55.93
33496;BME280;19836;55.812;37.560;2023-03-01T07:29:19;98964.00;;;-1.86;55.91
33496;BME280;19836;55.812;37.560;2023-03-01T07:31:50;98976.41;;;-1.60;56.10
33496;BME280;19836;55.812;37.560;2023-03-01T07:34:51;98970.47;;;-1.18;56.00
33496;BME280;19836;55.812;37.560;2023-03-01T07:40:16;98969.69;;;-0.78;55.08
33496;BME280;19836;55.812;37.560;2023-03-01T07:42:42;98972.34;;;-0.69;54.89
33496;BME280;19836;55.812;37.560;2023-03-01T07:45:09;98982.88;;;-0.62;54.68
33496;BME280;19836;55.812;37.560;2023-03-01T07:47:35;98977.63;;;-0.57;54.67
33496;BME280;19836;55.812;37.560;2023-03-01T07:50:01;98980.25;;;-0.50;54.67
33496;BME280;19836;55.812;37.560;2023-03-01T07:52:28;98975.03;;;-0.32;54.71
33496;BME280;19836;55.812;37.560;2023-03-01T07:54:54;98975.88;;;-0.16;54.64
33496;BME280;19836;55.812;37.560;2023-03-01T07:57:20;98984.66;;;-0.26;53.98
33496;BME280;19836;55.812;37.560;2023-03-01T07:59:46;98980.25;;;-0.44;54.08
33496;BME280;19836;55.812;37.560;2023-03-01T08:02:12;98985.53;;;-0.54;54.03
33496;BME280;19836;55.812;37.560;2023-03-01T08:04:38;98978.50;;;-0.58;53.74
33496;BME280;19836;55.812;37.560;2023-03-01T08:07:05;98973.25;;;-0.46;54.35
33496;BME280;19836;55.812;37.560;2023-03-01T08:09:31;98962.72;;;-0.31;54.35
33496;BME280;19836;55.812;37.560;2023-03-01T08:11:59;98958.31;;;-0.11;54.80
33496;BME280;19836;55.812;37.560;2023-03-01T08:14:26;98968.84;;;0.07;54.25
33496;BME280;19836;55.812;37.560;2023-03-01T08:16:52;98977.59;;;0.24;53.65
33496;BME280;19836;55.812;37.560;2023-03-01T08:19:18;98980.25;;;0.10;53.76
33496;BME280;19836;55.812;37.560;2023-03-01T08:21:44;98971.53;;;-0.13;53.58
33496;BME280;19836;55.812;37.560;2023-03-01T08:24:10;98978.53;;;-0.32;54.08
33496;BME280;19836;55.812;37.560;2023-03-01T08:26:37;98981.16;;;-0.40;53.57
33496;BME280;19836;55.812;37.560;2023-03-01T08:29:03;98988.16;;;-0.36;53.95
33496;BME280;19836;55.812;37.560;2023-03-01T08:31:33;98985.56;;;-0.32;54.04
33496;BME280;19836;55.812;37.560;2023-03-01T08:34:03;98991.69;;;-0.25;54.13
33496;BME280;19836;55.812;37.560;2023-03-01T08:36:32;99000.47;;;-0.14;54.27
33496;BME280;19836;55.812;37.560;2023-03-01T08:38:58;99003.94;;;0.09;54.11
33496;BME280;19836;55.812;37.560;2023-03-01T08:41:25;99010.97;;;0.16;53.99
33496;BME280;19836;55.812;37.560;2023-03-01T08:43:51;99011.00;;;-0.01;53.81
33496;BME280;19836;55.812;37.560;2023-03-01T08:46:18;99003.97;;;-0.09;53.61
33496;BME280;19836;55.812;37.560;2023-03-01T08:48:44;99018.00;;;-0.19;53.57
33496;BME280;19836;55.812;37.560;2023-03-01T08:51:16;99011.84;;;-0.35;53.68
33496;BME280;19836;55.812;37.560;2023-03-01T08:53:42;99004.84;;;-0.36;53.58
33496;BME280;19836;55.812;37.560;2023-03-01T08:56:10;99019.75;;;-0.24;53.29
33496;BME280;19836;55.812;37.560;2023-03-01T08:58:37;99018.00;;;-0.13;53.59
33496;BME280;19836;55.812;37.560;2023-03-01T09:01:10;99017.13;;;-0.21;53.37
33496;BME280;19836;55.812;37.560;2023-03-01T09:03:37;99019.75;;;-0.21;53.05
33496;BME280;19836;55.812;37.560;2023-03-01T09:06:11;99015.34;;;-0.24;53.56
33496;BME280;19836;55.812;37.560;2023-03-01T09:08:42;99012.75;;;-0.13;52.96
33496;BME280;19836;55.812;37.560;2023-03-01T09:11:10;99013.63;;;0.05;53.08
33496;BME280;19836;55.812;37.560;2023-03-01T09:13:37;99017.09;;;0.33;53.03
33496;BME280;19836;55.812;37.560;2023-03-01T09:16:05;99016.19;;;0.43;52.60
33496;BME280;19836;55.812;37.560;2023-03-01T09:18:36;99008.28;;;0.43;52.27
33496;BME280;19836;55.812;37.560;2023-03-01T09:21:15;99006.53;;;0.39;52.33
33496;BME280;19836;55.812;37.560;2023-03-01T09:23:46;99010.94;;;0.37;52.17
33496;BME280;19836;55.812;37.560;2023-03-01T09:26:16;99010.94;;;0.43;52.07
33496;BME280;19836;55.812;37.560;2023-03-01T09:28:45;99008.25;;;0.55;52.34
33496;BME280;19836;55.812;37.560;2023-03-01T09:31:15;99016.16;;;0.68;51.70
33496;BME280;19836;55.812;37.560;2023-03-01T09:33:44;99004.66;;;0.80;51.38
33496;BME280;19836;55.812;37.560;2023-03-01T09:36:17;99018.75;;;0.73;51.08
33496;BME280;19836;55.812;37.560;2023-03-01T09:38:44;99005.56;;;0.70;51.12
33496;BME280;19836;55.812;37.560;2023-03-01T09:44:40;98988.44;;;4.39;49.16
33496;BME280;19836;55.812;37.560;2023-03-01T09:47:30;98986.63;;;5.30;47.27
33496;BME280;19836;55.812;37.560;2023-03-01T09:50:21;98983.13;;;6.39;45.34
33496;BME280;19836;55.812;37.560;2023-03-01T09:53:41;98989.56;;;7.27;43.18
33496;BME280;19836;55.812;37.560;2023-03-01T10:09:46;98978.13;;;9.35;40.09
33496;BME280;19836;55.812;37.560;2023-03-01T10:12:33;98982.41;;;8.91;38.01
33496;BME280;19836;55.812;37.560;2023-03-01T10:15:17;99007.66;;;7.16;38.75
33496;BME280;19836;55.812;37.560;2023-03-01T10:17:50;99020.84;;;5.44;39.33
33496;BME280;19836;55.812;37.560;2023-03-01T10:20:24;99018.69;;;4.27;40.82
33496;BME280;19836;55.812;37.560;2023-03-01T10:22:51;99024.19;;;3.59;41.51
33496;BME280;19836;55.812;37.560;2023-03-01T10:28:28;99031.28;;;2.88;42.49
33496;BME280;19836;55.812;37.560;2023-03-01T10:30:58;99027.16;;;2.64;42.77
33496;BME280;19836;55.812;37.560;2023-03-01T10:33:32;99028.22;;;2.45;43.03
33496;BME280;19836;55.812;37.560;2023-03-01T10:35:58;99031.84;;;2.32;43.64
33496;BME280;19836;55.812;37.560;2023-03-01T10:38:24;99016.19;;;2.11;43.76
33496;BME280;19836;55.812;37.560;2023-03-01T10:40:54;99026.97;;;1.81;44.09
33496;BME280;19836;55.812;37.560;2023-03-01T10:43:45;99020.81;;;1.84;44.51
33496;BME280;19836;55.812;37.560;2023-03-01T10:49:12;99009.91;;;4.24;43.50
33496;BME280;19836;55.812;37.560;2023-03-01T10:51:41;99009.34;;;4.57;42.58
33496;BME280;19836;55.812;37.560;2023-03-01T10:54:28;99010.28;;;4.53;41.99
33496;BME280;19836;55.812;37.560;2023-03-01T10:56:59;99015.38;;;4.15;41.96
33496;BME280;19836;55.812;37.560;2023-03-01T10:59:37;99006.81;;;4.95;41.86
33496;BME280;19836;55.812;37.560;2023-03-01T11:04:35;99009.19;;;4.64;41.12
33496;BME280;19836;55.812;37.560;2023-03-01T11:07:06;99016.91;;;4.29;41.30
33496;BME280;19836;55.812;37.560;2023-03-01T11:09:33;99014.78;;;3.98;41.44
33496;BME280;19836;55.812;37.560;2023-03-01T11:12:14;99011.69;;;3.69;41.64
33496;BME280;19836;55.812;37.560;2023-03-01T11:14:51;98997.81;;;4.09;41.60
33496;BME280;19836;55.812;37.560;2023-03-01T11:17:31;99004.09;;;4.01;41.46
33496;BME280;19836;55.812;37.560;2023-03-01T11:20:17;98995.00;;;5.11;41.14
33496;BME280;19836;55.812;37.560;2023-03-01T11:22:53;98985.25;;;6.93;39.32
33496;BME280;19836;55.812;37.560;2023-03-01T11:25:36;99007.47;;;6.24;38.52
33496;BME280;19836;55.812;37.560;2023-03-01T11:28:05;99012.66;;;4.68;38.77
33496;BME280;19836;55.812;37.560;2023-03-01T11:30:42;99021.44;;;3.65;40.08
33496;BME280;19836;55.812;37.560;2023-03-01T11:33:42;99019.81;;;2.86;41.34
33496;BME280;19836;55.812;37.560;2023-03-01T11:38:55;99020.25;;;2.48;42.15
33496;BME280;19836;55.812;37.560;2023-03-01T11:41:30;99034.34;;;2.49;42.14
33496;BME280;19836;55.812;37.560;2023-03-01T11:44:14;99025.63;;;2.38;42.43
33496;BME280;19836;55.812;37.560;2023-03-01T11:52:54;99030.84;;;2.44;43.02
33496;BME280;19836;55.812;37.560;2023-03-01T11:55:58;99027.00;;;2.78;43.22
33496;BME280;19836;55.812;37.560;2023-03-01T11:59:18;99030.66;;;2.63;42.95
33496;BME280;19836;55.812;37.560;2023-03-01T12:01:53;99032.09;;;2.93;42.82
33496;BME280;19836;55.812;37.560;2023-03-01T12:04:50;99038.31;;;2.90;42.70
33496;BME280;19836;55.812;37.560;2023-03-01T12:10:30;99038.25;;;2.95;42.93
33496;BME280;19836;55.812;37.560;2023-03-01T12:16:04;99045.69;;;2.60;42.96
33496;BME280;19836;55.812;37.560;2023-03-01T12:27:53;99006.19;;;8.48;38.49
33496;BME280;19836;55.812;37.560;2023-03-01T12:33:29;99016.94;;;8.47;34.95
33496;BME280;19836;55.812;37.560;2023-03-01T12:39:06;99012.91;;;5.00;36.61
33496;BME280;19836;55.812;37.560;2023-03-01T12:42:30;99034.97;;;4.03;37.91
33496;BME280;19836;55.812;37.560;2023-03-01T12:47:47;99030.03;;;3.19;38.95
33496;BME280;19836;55.812;37.560;2023-03-01T12:50:51;99031.28;;;2.89;39.70
33496;BME280;19836;55.812;37.560;2023-03-01T12:53:24;99030.75;;;2.56;40.31
33496;BME280;19836;55.812;37.560;2023-03-01T12:55:55;99028.28;;;2.36;40.84
33496;BME280;19836;55.812;37.560;2023-03-01T12:58:50;99029.41;;;2.10;41.38
33496;BME280;19836;55.812;37.560;2023-03-01T13:04:37;99046.56;;;1.47;42.34
33496;BME280;19836;55.812;37.560;2023-03-01T13:08:15;99036.94;;;1.37;43.07
33496;BME280;19836;55.812;37.560;2023-03-01T13:10:24;99051.88;;;1.41;43.46
33496;BME280;19836;55.812;37.560;2023-03-01T13:13:02;99039.56;;;1.37;43.41
33496;BME280;19836;55.812;37.560;2023-03-01T13:15:34;99050.19;;;1.27;43.71
33496;BME280;19836;55.812;37.560;2023-03-01T13:31:05;99030.16;;;0.81;45.40
33496;BME280;19836;55.812;37.560;2023-03-01T13:36:02;99026.66;;;0.82;45.49
33496;BME280;19836;55.812;37.560;2023-03-01T13:38:46;99053.03;;;0.74;45.70
33496;BME280;19836;55.812;37.560;2023-03-01T13:41:15;99033.75;;;0.56;45.90
33496;BME280;19836;55.812;37.560;2023-03-01T13:43:44;99034.63;;;0.43;46.02
33496;BME280;19836;55.812;37.560;2023-03-01T13:46:29;99054.84;;;0.38;46.48
33496;BME280;19836;55.812;37.560;2023-03-01T13:49:09;99049.59;;;0.30;46.71
33496;BME280;19836;55.812;37.560;2023-03-01T13:51:39;99028.50;;;0.20;47.32
33496;BME280;19836;55.812;37.560;2023-03-01T13:54:11;99025.91;;;0.17;47.28
33496;BME280;19836;55.812;37.560;2023-03-01T13:56:45;99023.25;;;0.20;47.39
33496;BME280;19836;55.812;37.560;2023-03-01T13:59:19;99022.38;;;0.16;47.63
33496;BME280;19836;55.812;37.560;2023-03-01T14:02:10;99033.78;;;0.23;48.10
33496;BME280;19836;55.812;37.560;2023-03-01T14:04:38;99021.50;;;0.19;48.19
33496;BME280;19836;55.812;37.560;2023-03-01T14:07:12;99019.75;;;0.18;48.38
33496;BME280;19836;55.812;37.560;2023-03-01T14:09:44;99028.50;;;0.20;47.93
33496;BME280;19836;55.812;37.560;2023-03-01T14:15:32;99012.72;;;0.23;48.58
33496;BME280;19836;55.812;37.560;2023-03-01T14:17:59;99019.75;;;0.13;48.09
33496;BME280;19836;55.812;37.560;2023-03-01T14:20:27;99022.41;;;0.04;47.90
33496;BME280;19836;55.812;37.560;2023-03-01T14:23:10;99003.97;;;0.03;48.41
33496;BME280;19836;55.812;37.560;2023-03-01T14:25:54;98998.72;;;0.06;48.67
33496;BME280;19836;55.812;37.560;2023-03-01T14:28:33;98994.31;;;0.02;48.56
33496;BME280;19836;55.812;37.560;2023-03-01T14:31:44;99001.31;;;0.01;49.13
33496;BME280;19836;55.812;37.560;2023-03-01T14:34:23;98994.31;;;-0.13;49.26
33496;BME280;19836;55.812;37.560;2023-03-01T14:36:54;98996.94;;;-0.16;49.15
33496;BME280;19836;55.812;37.560;2023-03-01T14:39:24;99001.34;;;-0.24;49.31
33496;BME280;19836;55.812;37.560;2023-03-01T14:41:52;98996.97;;;-0.25;49.97
33496;BME280;19836;55.812;37.560;2023-03-01T14:44:22;98995.19;;;-0.32;49.84
33496;BME280;19836;55.812;37.560;2023-03-01T14:46:56;98985.53;;;-0.35;49.92
33496;BME280;19836;55.812;37.560;2023-03-01T14:49:26;98988.16;;;-0.36;50.66
33496;BME280;19836;55.812;37.560;2023-03-01T14:52:06;98999.56;;;-0.37;50.36
33496;BME280;19836;55.812;37.560;2023-03-01T14:55:02;98993.41;;;-0.36;51.02
33496;BME280;19836;55.812;37.560;2023-03-01T14:57:52;98989.03;;;-0.45;50.60
33496;BME280;19836;55.812;37.560;2023-03-01T15:00:25;98988.19;;;-0.45;51.18
33496;BME280;19836;55.812;37.560;2023-03-01T15:02:53;98989.91;;;-0.53;51.15
33496;BME280;19836;55.812;37.560;2023-03-01T15:05:29;98987.25;;;-0.56;51.54
33496;BME280;19836;55.812;37.560;2023-03-01T15:08:01;98984.63;;;-0.62;51.80
33496;BME280;19836;55.812;37.560;2023-03-01T15:10:33;98990.78;;;-0.60;52.03
33496;BME280;19836;55.812;37.560;2023-03-01T15:13:14;98987.25;;;-0.62;52.16
33496;BME280;19836;55.812;37.560;2023-03-01T15:15:46;98989.91;;;-0.65;52.07
33496;BME280;19836;55.812;37.560;2023-03-01T15:18:20;98995.16;;;-0.59;52.76
33496;BME280;19836;55.812;37.560;2023-03-01T15:20:49;98991.66;;;-0.58;52.34
33496;BME280;19836;55.812;37.560;2023-03-01T15:23:29;98995.19;;;-0.57;52.78
33496;BME280;19836;55.812;37.560;2023-03-01T15:26:00;98989.88;;;-0.67;53.03
33496;BME280;19836;55.812;37.560;2023-03-01T15:28:33;98988.13;;;-0.69;53.26
33496;BME280;19836;55.812;37.560;2023-03-01T15:31:03;98991.63;;;-0.67;53.24
33496;BME280;19836;55.812;37.560;2023-03-01T15:33:37;98989.00;;;-0.69;53.76
33496;BME280;19836;55.812;37.560;2023-03-01T15:36:39;98996.00;;;-0.75;54.10
33496;BME280;19836;55.812;37.560;2023-03-01T15:39:30;98991.59;;;-0.82;54.17
33496;BME280;19836;55.812;37.560;2023-03-01T15:42:07;98983.72;;;-0.82;54.34
33496;BME280;19836;55.812;37.560;2023-03-01T15:44:43;98981.97;;;-0.82;54.38
33496;BME280;19836;55.812;37.560;2023-03-01T15:47:25;98982.84;;;-0.74;54.34
33496;BME280;19836;55.812;37.560;2023-03-01T15:56:34;98967.94;;;-0.87;53.71
33496;BME280;19836;55.812;37.560;2023-03-01T15:59:09;98965.31;;;-0.85;53.99